sensor_id;sensor_type;location;lat;lon;timestamp;pressure;altitude;pressure_sealevel;temperature;humidity
10510;BME280;5303;53.266;10.410;2023-03-25T00:01:04;99792.03;;;11.06;100.00
10510;BME280;5303;53.266;10.410;2023-03-25T00:03:34;99791.63;;;11.09;100.00
10510;BME280;5303;53.266;10.410;2023-03-25T00:06:01;99798.34;;;11.13;100.00
10510;BME280;5303;53.266;10.410;2023-03-25T00:08:29;99787.00;;;11.09;100.00
10510;BME280;5303;53.266;10.410;2023-03-25T00:10:57;99791.00;;;11.13;100.00
10510;BME280;5303;53.266;10.410;2023-03-25T00:13:23;99783.69;;;11.14;100.00
10510;BME280;5303;53.266;10.410;2023-03-25T00:15:49;99779.69;;;11.10;100.00
10510;BME280;5303;53.266;10.410;2023-03-25T00:18:20;99782.25;;;11.18;100.00
10510;BME280;5303;53.266;10.410;2023-03-25T00:20:49;99760.84;;;11.15;100.00
10510;BME280;5303;53.266;10.410;2023-03-25T00:23:18;99769.00;;;11.08;100.00
10510;BME280;5303;53.266;10.410;2023-03-25T00:25:43;99768.34;;;11.06;100.00
10510;BME280;5303;53.266;10.410;2023-03-25T00:28:10;99769.00;;;11.08;100.00
10510;BME280;5303;53.266;10.410;2023-03-25T00:30:37;99761.84;;;11.07;100.00
10510;BME280;5303;53.266;10.410;2023-03-25T00:33:02;99763.28;;;11.03;100.00
10510;BME280;5303;53.266;10.410;2023-03-25T00:35:28;99760.13;;;11.00;100.00
10510;BME280;5303;53.266;10.410;2023-03-25T00:37:54;99764.91;;;10.91;100.00
10510;BME280;5303;53.266;10.410;2023-03-25T00:40:29;99761.56;;;10.89;100.00
10510;BME280;5303;53.266;10.410;2023-03-25T00:42:59;99758.38;;;10.79;100.00
10510;BME280;5303;53.266;10.410;2023-03-25T00:45:25;99755.38;;;10.73;100.00
10510;BME280;5303;53.266;10.410;2023-03-25T00:47:50;99760.59;;;10.68;100.00
10510;BME280;5303;53.266;10.410;2023-03-25T00:50:15;99759.31;;;10.64;100.00
10510;BME280;5303;53.266;10.410;2023-03-25T00:52:41;99766.38;;;10.59;100.00
10510;BME280;5303;53.266;10.410;2023-03-25T00:55:07;99763.66;;;10.59;100.00
10510;BME280;5303;53.266;10.410;2023-03-25T00:57:33;99766.56;;;10.51;100.00
10510;BME280;5303;53.266;10.410;2023-03-25T00:59:58;99767.78;;;10.48;100.00
10510;BME280;5303;53.266;10.410;2023-03-25T01:02:24;99765.03;;;10.41;100.00
10510;BME280;5303;53.266;10.410;2023-03-25T01:04:50;99765.69;;;10.43;100.00
10510;BME280;5303;53.266;10.410;2023-03-25T01:07:17;99763.00;;;10.50;100.00
10510;BME280;5303;53.266;10.410;2023-03-25T01:09:45;99767.56;;;10.49;100.00
10510;BME280;5303;53.266;10.410;2023-03-25T01:12:12;99763.22;;;10.55;100.00
10510;BME280;5303;53.266;10.410;2023-03-25T01:14:37;99766.75;;;10.49;100.00
10510;BME280;5303;53.266;10.410;2023-03-25T01:17:02;99757.41;;;10.65;100.00
10510;BME280;5303;53.266;10.410;2023-03-25T01:19:28;99755.72;;;10.57;100.00
10510;BME280;5303;53.266;10.410;2023-03-25T01:21:53;99763.13;;;10.70;100.00
10510;BME280;5303;53.266;10.410;2023-03-25T01:24:19;99747.38;;;10.65;100.00
10510;BME280;5303;53.266;10.410;2023-03-25T01:26:44;99744.63;;;10.65;100.00
10510;BME280;5303;53.266;10.410;2023-03-25T01:29:11;99751.53;;;10.61;100.00
10510;BME280;5303;53.266;10.410;2023-03-25T01:31:37;99741.97;;;10.72;100.00
10510;BME280;5303;53.266;10.410;2023-03-25T01:34:03;99740.91;;;10.66;100.00
10510;BME280;5303;53.266;10.410;2023-03-25T01:36:28;99744.31;;;10.82;100.00
10510;BME280;5303;53.266;10.410;2023-03-25T01:38:54;99742.25;;;10.84;100.00
10510;BME280;5303;53.266;10.410;2023-03-25T01:41:21;99733.00;;;10.85;100.00
10510;BME280;5303;53.266;10.410;2023-03-25T01:45:09;99741.19;;;10.85;100.00
10510;BME280;5303;53.266;10.410;2023-03-25T01:46:55;99738.22;;;10.73;100.00
10510;BME280;5303;53.266;10.410;2023-03-25T01:49:25;99735.06;;;10.69;100.00
10510;BME280;5303;53.266;10.410;2023-03-25T01:51:56;99740.31;;;10.78;100.00
10510;BME280;5303;53.266;10.410;2023-03-25T01:54:24;99731.16;;;10.85;100.00
10510;BME280;5303;53.266;10.410;2023-03-25T01:56:52;99732.41;;;10.83;100.00
10510;BME280;5303;53.266;10.410;2023-03-25T01:59:19;99730.69;;;10.82;100.00
10510;BME280;5303;53.266;10.410;2023-03-25T02:01:49;99736.63;;;10.92;100.00
10510;BME280;5303;53.266;10.410;2023-03-25T02:04:29;99724.47;;;10.94;100.00
10510;BME280;5303;53.266;10.410;2023-03-25T02:06:59;99723.03;;;10.99;100.00
10510;BME280;5303;53.266;10.410;2023-03-25T02:09:25;99726.16;;;10.95;100.00
10510;BME280;5303;53.266;10.410;2023-03-25T02:11:51;99718.84;;;10.96;100.00
10510;BME280;5303;53.266;10.410;2023-03-25T02:14:21;99713.75;;;10.86;100.00
10510;BME280;5303;53.266;10.410;2023-03-25T02:17:02;99712.66;;;10.74;100.00
10510;BME280;5303;53.266;10.410;2023-03-25T02:40:15;99708.78;;;10.55;100.00
10510;BME280;5303;53.266;10.410;2023-03-25T02:42:53;99697.25;;;10.53;100.00
10510;BME280;5303;53.266;10.410;2023-03-25T02:45:27;99693.28;;;10.62;100.00
10510;BME280;5303;53.266;10.410;2023-03-25T02:47:59;99700.41;;;10.57;100.00
10510;BME280;5303;53.266;10.410;2023-03-25T02:50:29;99701.03;;;10.59;100.00
10510;BME280;5303;53.266;10.410;2023-03-25T02:52:59;99686.59;;;10.58;100.00
10510;BME280;5303;53.266;10.410;2023-03-25T02:55:27;99680.31;;;10.58;100.00
10510;BME280;5303;53.266;10.410;2023-03-25T02:57:58;99681.09;;;10.52;100.00
10510;BME280;5303;53.266;10.410;2023-03-25T03:00:28;99680.69;;;10.55;100.00
10510;BME280;5303;53.266;10.410;2023-03-25T03:03:00;99684.50;;;10.60;100.00
10510;BME280;5303;53.266;10.410;2023-03-25T03:05:41;99683.69;;;10.60;100.00
10510;BME280;5303;53.266;10.410;2023-03-25T03:13:38;99681.16;;;10.65;100.00
10510;BME280;5303;53.266;10.410;2023-03-25T03:16:16;99678.25;;;10.66;100.00
10510;BME280;5303;53.266;10.410;2023-03-25T03:18:56;99687.28;;;10.73;100.00
10510;BME280;5303;53.266;10.410;2023-03-25T03:21:39;99685.00;;;10.77;100.00
10510;BME280;5303;53.266;10.410;2023-03-25T03:29:26;99675.78;;;10.78;100.00
10510;BME280;5303;53.266;10.410;2023-03-25T03:32:09;99672.59;;;10.68;100.00
10510;BME280;5303;53.266;10.410;2023-03-25T03:34:56;99687.47;;;10.72;100.00
10510;BME280;5303;53.266;10.410;2023-03-25T03:37:36;99679.50;;;10.64;100.00
10510;BME280;5303;53.266;10.410;2023-03-25T03:40:05;99670.06;;;10.60;100.00
10510;BME280;5303;53.266;10.410;2023-03-25T03:42:41;99672.97;;;10.58;100.00
10510;BME280;5303;53.266;10.410;2023-03-25T03:45:12;99676.41;;;10.39;100.00
10510;BME280;5303;53.266;10.410;2023-03-25T03:47:45;99680.59;;;10.35;100.00
10510;BME280;5303;53.266;10.410;2023-03-25T03:50:19;99675.16;;;10.35;100.00
10510;BME280;5303;53.266;10.410;2023-03-25T03:52:58;99671.38;;;10.36;100.00
10510;BME280;5303;53.266;10.410;2023-03-25T03:55:31;99667.56;;;10.30;100.00
10510;BME280;5303;53.266;10.410;2023-03-25T03:58:07;99669.31;;;10.38;100.00
10510;BME280;5303;53.266;10.410;2023-03-25T04:00:46;99670.16;;;10.80;100.00
10510;BME280;5303;53.266;10.410;2023-03-25T04:03:18;99655.75;;;10.51;100.00
10510;BME280;5303;53.266;10.410;2023-03-25T04:05:53;99665.56;;;10.45;100.00
10510;BME280;5303;53.266;10.410;2023-03-25T04:08:33;99661.13;;;10.38;100.00
10510;BME280;5303;53.266;10.410;2023-03-25T04:11:06;99669.31;;;10.38;100.00
10510;BME280;5303;53.266;10.410;2023-03-25T04:13:38;99671.66;;;10.19;100.00
10510;BME280;5303;53.266;10.410;2023-03-25T04:16:05;99673.00;;;10.30;100.00
10510;BME280;5303;53.266;10.410;2023-03-25T04:18:31;99671.38;;;10.36;100.00
10510;BME280;5303;53.266;10.410;2023-03-25T04:20:58;99669.50;;;10.36;100.00
10510;BME280;5303;53.266;10.410;2023-03-25T04:23:25;99673.34;;;10.20;100.00
10510;BME280;5303;53.266;10.410;2023-03-25T04:25:50;99679.94;;;10.33;100.00
10510;BME280;5303;53.266;10.410;2023-03-25T04:28:17;99679.03;;;10.25;100.00
10510;BME280;5303;53.266;10.410;2023-03-25T04:30:43;99675.94;;;10.29;100.00
10510;BME280;5303;53.266;10.410;2023-03-25T04:33:21;99680.59;;;10.35;100.00
10510;BME280;5303;53.266;10.410;2023-03-25T04:35:46;99673.78;;;10.24;100.00
10510;BME280;5303;53.266;10.410;2023-03-25T04:38:15;99675.94;;;10.29;100.00
10510;BME280;5303;53.266;10.410;2023-03-25T04:40:41;99689.09;;;10.25;100.00
10510;BME280;5303;53.266;10.410;2023-03-25T04:43:13;99677.81;;;10.28;100.00
10510;BME280;5303;53.266;10.410;2023-03-25T04:45:39;99681.38;;;10.29;100.00
10510;BME280;5303;53.266;10.410;2023-03-25T04:48:12;99681.88;;;10.17;100.00
10510;BME280;5303;53.266;10.410;2023-03-25T04:50:44;99681.28;;;10.15;100.00
10510;BME280;5303;53.266;10.410;2023-03-25T04:53:10;99684.59;;;10.17;100.00
10510;BME280;5303;53.266;10.410;2023-03-25T04:55:35;99671.88;;;10.18;100.00
10510;BME280;5303;53.266;10.410;2023-03-25T04:58:01;99677.53;;;10.23;100.00
10510;BME280;5303;53.266;10.410;2023-03-25T05:00:26;99684.44;;;10.19;100.00
10510;BME280;5303;53.266;10.410;2023-03-25T05:02:53;99671.88;;;10.18;100.00
10510;BME280;5303;53.266;10.410;2023-03-25T05:05:21;99670.69;;;10.27;100.00
10510;BME280;5303;53.266;10.410;2023-03-25T05:07:48;99671.72;;;10.26;100.00
10510;BME280;5303;53.266;10.410;2023-03-25T05:10:18;99669.25;;;10.31;100.00
10510;BME280;5303;53.266;10.410;2023-03-25T05:12:45;99680.34;;;10.30;100.00
10510;BME280;5303;53.266;10.410;2023-03-25T05:15:11;99680.56;;;10.28;100.00
10510;BME280;5303;53.266;10.410;2023-03-25T05:17:37;99675.94;;;10.29;100.00
10510;BME280;5303;53.266;10.410;2023-03-25T05:20:04;99676.50;;;10.24;100.00
10510;BME280;5303;53.266;10.410;2023-03-25T05:22:33;99669.44;;;10.30;100.00
10510;BME280;5303;53.266;10.410;2023-03-25T05:24:58;99673.00;;;10.30;100.00
10510;BME280;5303;53.266;10.410;2023-03-25T05:27:26;99683.09;;;10.36;100.00
10510;BME280;5303;53.266;10.410;2023-03-25T05:29:55;99679.75;;;10.34;100.00
10510;BME280;5303;53.266;10.410;2023-03-25T05:32:22;99687.34;;;10.45;100.00
10510;BME280;5303;53.266;10.410;2023-03-25T05:34:50;99676.03;;;10.42;100.00
10510;BME280;5303;53.266;10.410;2023-03-25T05:37:15;99689.38;;;10.37;100.00
10510;BME280;5303;53.266;10.410;2023-03-25T05:39:40;99684.19;;;10.42;100.00
10510;BME280;5303;53.266;10.410;2023-03-25T05:42:05;99692.16;;;10.43;100.00
10510;BME280;5303;53.266;10.410;2023-03-25T05:44:31;99688.16;;;10.39;100.00
10510;BME280;5303;53.266;10.410;2023-03-25T05:46:56;99691.53;;;10.41;100.00
10510;BME280;5303;53.266;10.410;2023-03-25T05:49:25;99696.72;;;10.36;100.00
10510;BME280;5303;53.266;10.410;2023-03-25T05:51:50;99696.09;;;10.34;100.00
10510;BME280;5303;53.266;10.410;2023-03-25T05:54:18;99700.09;;;10.38;100.00
10510;BME280;5303;53.266;10.410;2023-03-25T05:56:43;99698.16;;;10.32;100.00
10510;BME280;5303;53.266;10.410;2023-03-25T05:59:08;99700.91;;;10.39;100.00
10510;BME280;5303;53.266;10.410;2023-03-25T06:01:34;99708.25;;;10.38;100.00
10510;BME280;5303;53.266;10.410;2023-03-25T06:04:03;99705.72;;;10.37;100.00
10510;BME280;5303;53.266;10.410;2023-03-25T06:06:29;99711.59;;;10.34;100.00
10510;BME280;5303;53.266;10.410;2023-03-25T06:08:56;99713.88;;;10.37;100.00
10510;BME280;5303;53.266;10.410;2023-03-25T06:11:21;99721.75;;;10.25;100.00
10510;BME280;5303;53.266;10.410;2023-03-25T06:13:47;99706.56;;;10.37;100.00
10510;BME280;5303;53.266;10.410;2023-03-25T06:16:17;99709.09;;;10.39;100.00
10510;BME280;5303;53.266;10.410;2023-03-25T06:18:45;99709.88;;;10.33;100.00
10510;BME280;5303;53.266;10.410;2023-03-25T06:21:17;99712.41;;;10.34;100.00
10510;BME280;5303;53.266;10.410;2023-03-25T06:23:44;99718.31;;;10.38;100.00
10510;BME280;5303;53.266;10.410;2023-03-25T06:26:09;99709.75;;;10.41;100.00
10510;BME280;5303;53.266;10.410;2023-03-25T06:28:35;99712.41;;;10.34;100.00
10510;BME280;5303;53.266;10.410;2023-03-25T06:31:00;99724.63;;;10.23;100.00
10510;BME280;5303;53.266;10.410;2023-03-25T06:33:31;99716.25;;;10.18;100.00
10510;BME280;5303;53.266;10.410;2023-03-25T06:35:56;99722.47;;;10.34;100.00
10510;BME280;5303;53.266;10.410;2023-03-25T06:38:21;99714.75;;;10.37;100.00
10510;BME280;5303;53.266;10.410;2023-03-25T06:40:47;99716.41;;;10.38;100.00
10510;BME280;5303;53.266;10.410;2023-03-25T06:43:12;99724.97;;;10.35;100.00
10510;BME280;5303;53.266;10.410;2023-03-25T06:45:38;99721.91;;;10.45;100.00
10510;BME280;5303;53.266;10.410;2023-03-25T06:48:03;99724.63;;;10.45;100.00
10510;BME280;5303;53.266;10.410;2023-03-25T06:50:30;99715.19;;;10.41;100.00
10510;BME280;5303;53.266;10.410;2023-03-25T06:52:55;99721.75;;;10.53;100.00
10510;BME280;5303;53.266;10.410;2023-03-25T06:55:21;99718.06;;;10.67;100.00
10510;BME280;5303;53.266;10.410;2023-03-25T06:57:46;99713.84;;;10.65;100.00
10510;BME280;5303;53.266;10.410;2023-03-25T07:00:11;99716.97;;;10.62;100.00
10510;BME280;5303;53.266;10.410;2023-03-25T07:02:37;99708.63;;;10.63;100.00
10510;BME280;5303;53.266;10.410;2023-03-25T07:05:04;99712.88;;;10.72;100.00
10510;BME280;5303;53.266;10.410;2023-03-25T07:07:29;99711.19;;;10.78;100.00
10510;BME280;5303;53.266;10.410;2023-03-25T07:09:55;99720.25;;;10.85;100.00
10510;BME280;5303;53.266;10.410;2023-03-25T07:12:21;99716.84;;;10.77;100.00
10510;BME280;5303;53.266;10.410;2023-03-25T07:14:53;99716.91;;;10.90;100.00
10510;BME280;5303;53.266;10.410;2023-03-25T07:17:19;99726.56;;;10.92;100.00
10510;BME280;5303;53.266;10.410;2023-03-25T07:19:45;99715.06;;;10.97;100.00
10510;BME280;5303;53.266;10.410;2023-03-25T07:22:10;99723.06;;;11.05;100.00
10510;BME280;5303;53.266;10.410;2023-03-25T07:24:35;99722.88;;;11.13;100.00
10510;BME280;5303;53.266;10.410;2023-03-25T07:27:01;99716.41;;;11.14;100.00
10510;BME280;5303;53.266;10.410;2023-03-25T07:29:26;99717.81;;;11.04;100.00
10510;BME280;5303;53.266;10.410;2023-03-25T07:31:51;99723.66;;;11.01;100.00
10510;BME280;5303;53.266;10.410;2023-03-25T07:34:17;99727.91;;;11.16;100.00
10510;BME280;5303;53.266;10.410;2023-03-25T07:36:42;99728.75;;;11.17;100.00
10510;BME280;5303;53.266;10.410;2023-03-25T07:39:07;99729.25;;;11.34;100.00
10510;BME280;5303;53.266;10.410;2023-03-25T07:41:32;99726.13;;;11.37;100.00
10510;BME280;5303;53.266;10.410;2023-03-25T07:43:58;99719.84;;;11.36;100.00
10510;BME280;5303;53.266;10.410;2023-03-25T07:46:23;99729.91;;;11.49;100.00
10510;BME280;5303;53.266;10.410;2023-03-25T07:48:48;99729.53;;;11.59;100.00
10510;BME280;5303;53.266;10.410;2023-03-25T07:51:14;99726.34;;;11.55;100.00
10510;BME280;5303;53.266;10.410;2023-03-25T07:53:39;99722.38;;;11.64;100.00
10510;BME280;5303;53.266;10.410;2023-03-25T07:56:09;99740.63;;;11.57;100.00
10510;BME280;5303;53.266;10.410;2023-03-25T07:58:34;99726.53;;;11.40;100.00
10510;BME280;5303;53.266;10.410;2023-03-25T08:01:00;99730.53;;;11.45;100.00
10510;BME280;5303;53.266;10.410;2023-03-25T08:03:25;99729.72;;;11.51;100.00
10510;BME280;5303;53.266;10.410;2023-03-25T08:05:52;99732.88;;;11.61;100.00
10510;BME280;5303;53.266;10.410;2023-03-25T08:08:17;99725.53;;;11.68;100.00
10510;BME280;5303;53.266;10.410;2023-03-25T08:10:43;99735.44;;;11.76;100.00
10510;BME280;5303;53.266;10.410;2023-03-25T08:13:09;99737.31;;;11.69;100.00
10510;BME280;5303;53.266;10.410;2023-03-25T08:15:35;99741.09;;;11.74;100.00
10510;BME280;5303;53.266;10.410;2023-03-25T08:18:01;99735.22;;;11.84;100.00
10510;BME280;5303;53.266;10.410;2023-03-25T08:20:27;99748.72;;;11.99;100.00
10510;BME280;5303;53.266;10.410;2023-03-25T08:22:53;99753.34;;;11.92;100.00
10510;BME280;5303;53.266;10.410;2023-03-25T08:25:18;99741.78;;;11.89;100.00
10510;BME280;5303;53.266;10.410;2023-03-25T08:27:43;99742.84;;;12.08;100.00
10510;BME280;5303;53.266;10.410;2023-03-25T08:30:09;99755.44;;;12.23;100.00
10510;BME280;5303;53.266;10.410;2023-03-25T08:32:35;99742.84;;;12.15;100.00
10510;BME280;5303;53.266;10.410;2023-03-25T08:35:02;99745.56;;;12.22;100.00
10510;BME280;5303;53.266;10.410;2023-03-25T08:37:29;99747.88;;;12.18;100.00
10510;BME280;5303;53.266;10.410;2023-03-25T08:39:59;99743.03;;;12.07;100.00
10510;BME280;5303;53.266;10.410;2023-03-25T08:42:24;99747.66;;;12.13;100.00
10510;BME280;5303;53.266;10.410;2023-03-25T08:44:49;99739.88;;;11.90;100.00
10510;BME280;5303;53.266;10.410;2023-03-25T08:47:15;99742.00;;;12.08;100.00
10510;BME280;5303;53.266;10.410;2023-03-25T08:49:40;99746.63;;;12.21;100.00
10510;BME280;5303;53.266;10.410;2023-03-25T08:52:05;99744.72;;;12.15;100.00
10510;BME280;5303;53.266;10.410;2023-03-25T08:54:33;99738.63;;;12.26;100.00
10510;BME280;5303;53.266;10.410;2023-03-25T08:56:58;99735.69;;;12.21;100.00
10510;BME280;5303;53.266;10.410;2023-03-25T08:59:23;99739.91;;;12.30;100.00
10510;BME280;5303;53.266;10.410;2023-03-25T09:01:48;99733.59;;;12.43;100.00
10510;BME280;5303;53.266;10.410;2023-03-25T09:04:14;99726.44;;;12.42;100.00
10510;BME280;5303;53.266;10.410;2023-03-25T09:06:40;99732.06;;;12.60;100.00
10510;BME280;5303;53.266;10.410;2023-03-25T09:09:06;99733.97;;;12.66;100.00
10510;BME280;5303;53.266;10.410;2023-03-25T09:11:32;99726.81;;;12.65;100.00
10510;BME280;5303;53.266;10.410;2023-03-25T09:13:58;99720.06;;;12.81;100.00
10510;BME280;5303;53.266;10.410;2023-03-25T09:16:23;99717.34;;;12.81;100.00
10510;BME280;5303;53.266;10.410;2023-03-25T09:18:49;99718.38;;;12.80;100.00
10510;BME280;5303;53.266;10.410;2023-03-25T09:21:14;99725.28;;;12.89;100.00
10510;BME280;5303;53.266;10.410;2023-03-25T09:23:39;99702.81;;;12.74;100.00
10510;BME280;5303;53.266;10.410;2023-03-25T09:26:05;99716.19;;;13.02;100.00
10510;BME280;5303;53.266;10.410;2023-03-25T09:28:30;99707.91;;;13.22;100.00
10510;BME280;5303;53.266;10.410;2023-03-25T09:30:56;99708.53;;;13.31;100.00
10510;BME280;5303;53.266;10.410;2023-03-25T09:33:22;99695.28;;;13.27;100.00
10510;BME280;5303;53.266;10.410;2023-03-25T09:35:48;99709.41;;;13.18;100.00
10510;BME280;5303;53.266;10.410;2023-03-25T09:38:14;99712.34;;;13.16;100.00
10510;BME280;5303;53.266;10.410;2023-03-25T09:40:41;99707.81;;;13.48;100.00
10510;BME280;5303;53.266;10.410;2023-03-25T09:45:51;99703.97;;;13.11;100.00
10510;BME280;5303;53.266;10.410;2023-03-25T09:48:32;99791.13;;;12.61;100.00
10510;BME280;5303;53.266;10.410;2023-03-25T09:51:04;99809.78;;;10.60;100.00
10510;BME280;5303;53.266;10.410;2023-03-25T09:56:23;99809.66;;;10.04;100.00
10510;BME280;5303;53.266;10.410;2023-03-25T09:59:00;99809.16;;;9.94;100.00
10510;BME280;5303;53.266;10.410;2023-03-25T10:01:38;99784.66;;;9.72;100.00
10510;BME280;5303;53.266;10.410;2023-03-25T10:07:24;99788.81;;;9.68;100.00
10510;BME280;5303;53.266;10.410;2023-03-25T10:10:01;99786.84;;;9.62;100.00
10510;BME280;5303;53.266;10.410;2023-03-25T10:12:47;99775.34;;;9.82;100.00
10510;BME280;5303;53.266;10.410;2023-03-25T10:20:46;99772.69;;;10.10;100.00
10510;BME280;5303;53.266;10.410;2023-03-25T10:23:25;99775.91;;;10.20;100.00
10510;BME280;5303;53.266;10.410;2023-03-25T10:26:05;99771.06;;;10.15;100.00
10510;BME280;5303;53.266;10.410;2023-03-25T10:28:37;99765.19;;;10.12;100.00
10510;BME280;5303;53.266;10.410;2023-03-25T10:31:04;99765.09;;;10.26;100.00
10510;BME280;5303;53.266;10.410;2023-03-25T10:33:38;99764.81;;;10.43;100.00
10510;BME280;5303;53.266;10.410;2023-03-25T10:36:09;99768.22;;;10.52;100.00
10510;BME280;5303;53.266;10.410;2023-03-25T10:38:39;99771.00;;;10.58;100.00
10510;BME280;5303;53.266;10.410;2023-03-25T10:43:49;99762.19;;;10.91;100.00
10510;BME280;5303;53.266;10.410;2023-03-25T10:46:28;99751.59;;;11.09;100.00
10510;BME280;5303;53.266;10.410;2023-03-25T10:48:56;99744.72;;;11.20;100.00
10510;BME280;5303;53.266;10.410;2023-03-25T10:51:26;99751.63;;;11.23;100.00
10510;BME280;5303;53.266;10.410;2023-03-25T10:53:53;99751.44;;;11.24;100.00
10510;BME280;5303;53.266;10.410;2023-03-25T10:56:23;99755.03;;;11.31;100.00
10510;BME280;5303;53.266;10.410;2023-03-25T10:58:54;99748.78;;;11.44;100.00
10510;BME280;5303;53.266;10.410;2023-03-25T11:01:30;99745.41;;;11.42;100.00
10510;BME280;5303;53.266;10.410;2023-03-25T11:03:59;99757.63;;;11.53;100.00
10510;BME280;5303;53.266;10.410;2023-03-25T11:06:31;99757.84;;;11.64;100.00
10510;BME280;5303;53.266;10.410;2023-03-25T11:11:48;99756.59;;;11.67;100.00
10510;BME280;5303;53.266;10.410;2023-03-25T11:14:14;99764.59;;;11.69;100.00
10510;BME280;5303;53.266;10.410;2023-03-25T11:16:46;99762.47;;;11.71;100.00
10510;BME280;5303;53.266;10.410;2023-03-25T11:22:06;99757.53;;;12.01;100.00
10510;BME280;5303;53.266;10.410;2023-03-25T11:24:34;99746.16;;;11.91;100.00
10510;BME280;5303;53.266;10.410;2023-03-25T11:27:06;99750.16;;;11.81;100.00
10510;BME280;5303;53.266;10.410;2023-03-25T11:29:33;99740.94;;;11.96;100.00
10510;BME280;5303;53.266;10.410;2023-03-25T11:32:36;99732.97;;;12.14;100.00
10510;BME280;5303;53.266;10.410;2023-03-25T11:35:16;99735.47;;;12.16;100.00
10510;BME280;5303;53.266;10.410;2023-03-25T11:37:46;99730.66;;;12.24;100.00
10510;BME280;5303;53.266;10.410;2023-03-25T11:40:15;99725.81;;;12.20;100.00
10510;BME280;5303;53.266;10.410;2023-03-25T11:42:43;99722.66;;;12.23;100.00
10510;BME280;5303;53.266;10.410;2023-03-25T11:45:34;99722.25;;;12.12;100.00
10510;BME280;5303;53.266;10.410;2023-03-25T11:48:22;99711.56;;;11.98;100.00
10510;BME280;5303;53.266;10.410;2023-03-25T11:50:53;99713.81;;;11.81;100.00
10510;BME280;5303;53.266;10.410;2023-03-25T11:53:20;99716.09;;;11.57;100.00
10510;BME280;5303;53.266;10.410;2023-03-25T11:55:49;99724.91;;;11.53;100.00
10510;BME280;5303;53.266;10.410;2023-03-25T11:58:18;99736.00;;;11.51;100.00
10510;BME280;5303;53.266;10.410;2023-03-25T12:00:47;99761.97;;;11.34;100.00
10510;BME280;5303;53.266;10.410;2023-03-25T12:05:39;99759.50;;;11.04;100.00
10510;BME280;5303;53.266;10.410;2023-03-25T12:08:13;99758.19;;;10.87;100.00
10510;BME280;5303;53.266;10.410;2023-03-25T12:10:54;99774.13;;;10.55;100.00
10510;BME280;5303;53.266;10.410;2023-03-25T12:16:12;99809.72;;;9.68;100.00
10510;BME280;5303;53.266;10.410;2023-03-25T12:21:50;99774.72;;;9.43;100.00
10510;BME280;5303;53.266;10.410;2023-03-25T12:27:32;99750.19;;;10.22;100.00
10510;BME280;5303;53.266;10.410;2023-03-25T12:30:17;99748.47;;;10.43;100.00
10510;BME280;5303;53.266;10.410;2023-03-25T12:33:18;99740.28;;;10.71;100.00
10510;BME280;5303;53.266;10.410;2023-03-25T12:39:19;99720.69;;;10.89;100.00
10510;BME280;5303;53.266;10.410;2023-03-25T12:47:41;99703.94;;;11.53;100.00
10510;BME280;5303;53.266;10.410;2023-03-25T12:50:25;99691.31;;;11.52;100.00
10510;BME280;5303;53.266;10.410;2023-03-25T12:55:47;99693.72;;;11.95;100.00
10510;BME280;5303;53.266;10.410;2023-03-25T12:59:22;99694.34;;;12.10;100.00
10510;BME280;5303;53.266;10.410;2023-03-25T13:04:32;99680.69;;;12.17;100.00
10510;BME280;5303;53.266;10.410;2023-03-25T13:07:14;99672.88;;;12.34;100.00
10510;BME280;5303;53.266;10.410;2023-03-25T13:12:57;99668.38;;;12.66;100.00
10510;BME280;5303;53.266;10.410;2023-03-25T13:18:07;99688.88;;;12.24;100.00
10510;BME280;5303;53.266;10.410;2023-03-25T13:20:41;99684.88;;;12.06;100.00
10510;BME280;5303;53.266;10.410;2023-03-25T13:23:11;99699.16;;;12.15;100.00
10510;BME280;5303;53.266;10.410;2023-03-25T13:25:48;99693.91;;;12.00;100.00
10510;BME280;5303;53.266;10.410;2023-03-25T13:28:20;99698.09;;;11.83;100.00
10510;BME280;5303;53.266;10.410;2023-03-25T13:30:48;99689.66;;;11.64;100.00
10510;BME280;5303;53.266;10.410;2023-03-25T13:33:27;99696.78;;;11.52;100.00
10510;BME280;5303;53.266;10.410;2023-03-25T13:38:49;99697.38;;;11.41;100.00
10510;BME280;5303;53.266;10.410;2023-03-25T13:41:36;99695.72;;;11.47;100.00
10510;BME280;5303;53.266;10.410;2023-03-25T13:44:17;99692.38;;;11.51;100.00
10510;BME280;5303;53.266;10.410;2023-03-25T13:49:40;99686.03;;;11.31;100.00
10510;BME280;5303;53.266;10.410;2023-03-25T13:52:08;99697.81;;;11.38;100.00
10510;BME280;5303;53.266;10.410;2023-03-25T13:54:47;99708.28;;;11.41;100.00
10510;BME280;5303;53.266;10.410;2023-03-25T14:03:04;99693.38;;;11.24;100.00
10510;BME280;5303;53.266;10.410;2023-03-25T14:05:58;99699.03;;;11.29;100.00
10510;BME280;5303;53.266;10.410;2023-03-25T14:11:58;99700.78;;;11.50;100.00
10510;BME280;5303;53.266;10.410;2023-03-25T14:14:25;99697.22;;;11.56;100.00
10510;BME280;5303;53.266;10.410;2023-03-25T14:16:55;99684.00;;;11.46;100.00
10510;BME280;5303;53.266;10.410;2023-03-25T14:19:36;99698.22;;;11.41;100.00
10510;BME280;5303;53.266;10.410;2023-03-25T14:22:12;99700.53;;;11.45;100.00
10510;BME280;5303;53.266;10.410;2023-03-25T14:24:38;99701.34;;;11.32;100.00
10510;BME280;5303;53.266;10.410;2023-03-25T14:27:26;99697.13;;;11.23;100.00
10510;BME280;5303;53.266;10.410;2023-03-25T14:30:00;99707.19;;;11.22;100.00
10510;BME280;5303;53.266;10.410;2023-03-25T14:32:37;99712.84;;;11.14;100.00
10510;BME280;5303;53.266;10.410;2023-03-25T14:45:51;99697.41;;;11.48;100.00
10510;BME280;5303;53.266;10.410;2023-03-25T14:48:28;99697.84;;;11.64;100.00
10510;BME280;5303;53.266;10.410;2023-03-25T14:53:39;99686.06;;;11.44;100.00
10510;BME280;5303;53.266;10.410;2023-03-25T14:56:07;99690.88;;;11.42;100.00
10510;BME280;5303;53.266;10.410;2023-03-25T14:58:39;99681.47;;;11.64;100.00